No Warnings, Watches, or Advisories

Active alerts


No alerts

Amazon Weather

Hours of Daylight

13 hrs 43 min 37 sec
of Daylight Today
graph 57.2% Day 42.8% Night Which is
2 min 28 sec Longer
Than Yesterday

South West Webcam Still Photo more information South West Webcam Still Photo


You find our weather info also at:

UK Metoffice

Weather Underground

Mid-Atlantic Weather Network

WeatherlinkIP

Citizen Weather Observer Program (CWOP)

HAMweather, WeatherForYou, PWS Weather



Nearby METAR Reports

   
KDUJ - Du Bois, Pennsylvania, USA
Distance from station: NNE 16 mi
Updated: Apr 24 2018 1:15 pm
Light Rain, Mist, Overcast  
Light Rain, Mist, Overcast  
   Wind: ESE 15 mph<br />Gust to 15 mph
Wind: ESE 15 mph
Gust to 15 mph
Temperature: 48.2°F
Wind Chill: 42.8°F
Dew Point: 46.4°F
Humidity: 94%
Barometer: 30.16 inHg
Clouds: Overcast
Visibility: 6 mi
Cloud details: Few Clouds 2600 ft,
Mostly Cloudy 6000 ft,
Overcast 7000 ft
KDUJ 241715Z AUTO 12013G20KT 6SM -RA BR FEW026 BKN060 OVC070 09/08 A3016 RMK AO2 P0001 T00940078 TSNO
KIDI - Indiana/Stewart, Pennsylvania, USA
Distance from station: SSW 23 mi
Updated: Apr 24 2018 1:35 pm
Mist, Partly Cloudy  
Mist, Partly Cloudy  
   Wind: SE 12.7 mph<br />Gust to 12.7 mph
Wind: SE 12.7 mph
Gust to 12.7 mph
Temperature: 50°F
Wind Chill: 44.6°F
Dew Point: 48.2°F
Humidity: 94%
Barometer: 30.16 inHg
Clouds: Partly Cloudy
Visibility: 3 mi
Cloud details: Few Clouds 1900 ft,
Few Clouds 3200 ft,
Partly Cloudy 5500 ft
KIDI 241735Z AUTO 14011G17KT 3SM BR FEW019 FEW032 SCT055 10/09 A3016 RMK A01
KFIG - Clearfield, Pennsylvania, USA
Distance from station: ENE 31 mi
Updated: Apr 24 2018 12:54 pm
Light Rain, Overcast  
Light Rain, Overcast  
   Wind: SSE 4.6 mph
Wind: SSE 4.6 mph
Temperature: 51.8°F
Dew Point: 44.6°F
Humidity: 77%
Barometer: 30.2 inHg
Clouds: Overcast
Visibility: 10 mi
Cloud details: Mostly Cloudy 3300 ft,
Mostly Cloudy 5000 ft,
Overcast 6000 ft
KFIG 241654Z AUTO 15004KT 10SM -RA BKN033 BKN050 OVC060 11/07 A3020 RMK AO2 RAB09 SLP230 P0001 T01110067
KJST - Johnstown, Pennsylvania, USA
Distance from station: S 44 mi
Updated: Apr 24 2018 1:28 pm
Light Rain, Overcast  
Light Rain, Overcast  
   Wind: SE 12.7 mph<br />Gust to 12.7 mph
Wind: SE 12.7 mph
Gust to 12.7 mph
Temperature: 46.4°F
Wind Chill: 41°F
Dew Point: 44.6°F
Humidity: 93%
Barometer: 30.14 inHg
Clouds: Overcast
Visibility: 7 mi
Cloud details: Mostly Cloudy 1100 ft,
Overcast 1400 ft
KJST 241728Z AUTO 13011G20KT 7SM -RA BKN011 OVC014 08/07 A3014 RMK AO2 CIG 008V012 P0002 T00830067
KPIT - Pittsburgh, Pennsylvania, USA
Distance from station: WSW 74 mi
Updated: Apr 24 2018 1:41 pm
Light Rain, Overcast  
Light Rain, Overcast  
   Wind: East 10.4 mph
Wind: East 10.4 mph
Temperature: 53.6°F
Dew Point: 51.8°F
Humidity: 94%
Barometer: 30.07 inHg
Clouds: Overcast
Visibility: 8 mi
Cloud details: Partly Cloudy 900 ft,
Mostly Cloudy 1300 ft,
Overcast 6500 ft
KPIT 241741Z 10009KT 8SM -RA SCT009 BKN013 OVC065 12/11 A3007 RMK AO2 P0002 T01170106
KLBE - Latrobe/Westmorl, Pennsylvania, USA
Distance from station: SSW 52 mi
Updated: Apr 24 2018 1:47 pm
Light Rain, Overcast  
Light Rain, Overcast  
   Wind: ESE 11.5 mph<br />Gust to 11.5 mph
Wind: ESE 11.5 mph
Gust to 11.5 mph
Temperature: 53.6°F
Dew Point: 15.8°F
Humidity: 22%
Barometer: 30.09 inHg
Clouds: Overcast
Visibility: 10 mi
Cloud details: Partly Cloudy 2200 ft,
Overcast 4500 ft
KLBE 241747Z 11010G15KT 10SM -RA SCT022 OVC045 12/M09 A3009
KBTP - Butler Co., Pennsylvania, USA
Distance from station: WSW 52 mi
Updated: Apr 24 2018 12:56 pm
Light Rain, Overcast  
Light Rain, Overcast  
   Wind: East 12.7 mph<br />Gust to 12.7 mph
Wind: East 12.7 mph
Gust to 12.7 mph
Temperature: 50°F
Wind Chill: 44.6°F
Dew Point: 48.2°F
Humidity: 94%
Barometer: 30.11 inHg
Clouds: Overcast
Visibility: 10 mi
Cloud details: Mostly Cloudy 900 ft,
Overcast 4900 ft
KBTP 241656Z AUTO 08011G18KT 10SM -RA BKN009 OVC049 10/09 A3011 RMK AO2 CIG 007V014 SLP204 P0005 T01000089
KUCP - New Castle Muni, Pennsylvania, USA
Distance from station: W 75 mi
Updated: Apr 24 2018 1:37 pm
Rain, Overcast  
Rain, Overcast  
   Wind: ESE 6.9 mph
Wind: ESE 6.9 mph
Temperature: 51.8°F
Dew Point: 51.8°F
Humidity: 100%
Barometer: 30.1 inHg
Clouds: Overcast
Visibility: 8 mi
Cloud details: Mostly Cloudy 1300 ft,
Overcast 4300 ft
KUCP 241737Z AUTO 11006KT 8SM RA BKN013 OVC043 11/11 A3010 RMK AO2 P0004
KFKL - Franklin, Pennsylvania, USA
Distance from station: WNW 54 mi
Updated: Apr 24 2018 1:35 pm
Light Rain, Overcast  
Light Rain, Overcast  
   Wind: ESE 13.8 mph<br />Gust to 13.8 mph
Wind: ESE 13.8 mph
Gust to 13.8 mph
Temperature: 48.2°F
Wind Chill: 42.8°F
Dew Point: 44.6°F
Humidity: 87%
Barometer: 30.13 inHg
Clouds: Overcast
Visibility: 10 mi
Cloud details: Mostly Cloudy 1300 ft,
Overcast 1800 ft
KFKL 241735Z AUTO 11012G17KT 10SM -RA BKN013 OVC018 09/07 A3013 RMK AO2 P0003
KAOO - Altoona, Pennsylvania, USA
Distance from station: SE 57 mi
Updated: Apr 24 2018 1:37 pm
Overcast  
Overcast  
   Wind: SE 11.5 mph
Wind: SE 11.5 mph
Temperature: 53.6°F
Dew Point: 42.8°F
Humidity: 67%
Barometer: 30.18 inHg
Clouds: Overcast
Visibility: 10 mi
Cloud details: Mostly Cloudy 2900 ft,
Overcast 3600 ft
KAOO 241737Z AUTO 13010KT 10SM BKN029 OVC036 12/06 A3018 RMK AO2 RAE00 P0000 T01220061
KUNV - State College, Pennsylvania, USA
Distance from station: E 61 mi
Updated: Apr 24 2018 1:53 pm
Overcast  
Overcast  
   Wind: SSE 9.2 mph<br />Gust to 9.2 mph
Wind: SSE 9.2 mph
Gust to 9.2 mph
Temperature: 57.2°F
Dew Point: 41°F
Humidity: 55%
Barometer: 30.18 inHg
Clouds: Overcast
Visibility: 10 mi
Cloud details: Overcast 3900 ft
KUNV 241753Z 15008G22KT 120V190 10SM OVC039 14/05 A3018
KBFD - Bradford, Pennsylvania, USA
Distance from station: NNE 62 mi
Updated: Apr 24 2018 12:53 pm
Light Rain, Overcast  
Light Rain, Overcast  
   Wind: SSE 8.1 mph<br />Gust to 8.1 mph
Wind: SSE 8.1 mph
Gust to 8.1 mph
Temperature: 53.6°F
Dew Point: 37.4°F
Humidity: 54%
Barometer: 30.18 inHg
Clouds: Overcast
Visibility: 10 mi
Cloud details: Mostly Cloudy 3800 ft,
Mostly Cloudy 4600 ft,
Overcast 6000 ft
KBFD 241653Z AUTO 16007G21KT 10SM -RA BKN038 BKN046 OVC060 12/03 A3018 RMK AO2 RAB49 SLP219 P0000 T01220033

Script developed by  Saratoga-weather.org Adapted for the template by  Weerstation Leuven

Equipment we use:

Weather-station
Davis VP2

Weather-program
Cumulus

Weather-server
Dell Inspiron 3521

Provider
Host On A Rope

Davis VP2

Cumulus

Dell Inspiron 3521

Host On A Rope